Time;durP1;ratioP1;P1;durP2;ratioP2;P2;SDS_P1;SDS_P2;PMS_P1;PMS_P2;Temp;Humidity;BMP_temperature;BMP_pressure;BME280_temperature;BME280_humidity;BME280_pressure;Samples;Min_cycle;Max_cycle;Signal;HPM_P1;HPM_P2
2021/05/24 00:00:19;;;;;;;4.45;1.60;;;15.80;76.20;15.60;99403.00;;;;418220;23;83354;-84
2021/05/24 00:00:31;;;;;;;5.43;1.60;;;15.80;76.30;15.50;99404.00;;;;413632;23;90509;-85
2021/05/24 00:00:43;;;;;;;4.95;1.55;;;15.80;76.40;15.50;99408.00;;;;414198;23;83296;-85
2021/05/24 00:00:54;;;;;;;4.63;1.23;;;15.80;76.40;15.40;99409.00;;;;413745;23;89477;-84
2021/05/24 00:01:06;;;;;;;2.40;1.08;;;15.80;76.70;15.50;99403.00;;;;416454;23;83840;-86
2021/05/24 00:01:18;;;;;;;2.20;1.23;;;15.80;76.60;15.40;99404.00;;;;414263;23;89462;-85
2021/05/24 00:01:30;;;;;;;2.20;1.17;;;15.80;76.60;15.30;99404.00;;;;416205;23;83356;-84
2021/05/24 00:01:42;;;;;;;2.22;1.10;;;15.80;76.70;15.50;99403.00;;;;418190;23;88707;-85
2021/05/24 00:01:54;;;;;;;2.58;1.23;;;15.70;76.40;15.60;99400.00;;;;416577;23;83301;-85
2021/05/24 00:02:06;;;;;;;3.08;1.30;;;15.80;76.20;15.70;99404.00;;;;416144;23;88729;-85
2021/05/24 00:02:18;;;;;;;3.42;1.17;;;15.80;76.10;15.80;99408.00;;;;414225;23;83329;-84
2021/05/24 00:02:30;;;;;;;3.75;1.15;;;15.80;76.00;15.60;99409.00;;;;413466;23;89710;-84
2021/05/24 00:02:42;;;;;;;4.15;1.30;;;15.80;76.30;15.50;99407.00;;;;414126;23;83408;-84
2021/05/24 00:02:54;;;;;;;4.18;1.13;;;15.80;76.70;15.60;99405.00;;;;415773;23;88660;-84
2021/05/24 00:03:06;;;;;;;4.55;1.23;;;15.70;77.30;15.70;99408.00;;;;418401;23;83352;-85
2021/05/24 00:03:17;;;;;;;3.60;1.20;;;15.80;76.60;15.70;99403.00;;;;413844;23;89461;-85
2021/05/24 00:03:29;;;;;;;2.95;1.20;;;15.70;76.20;15.70;99405.00;;;;416390;23;85309;-85
2021/05/24 00:03:41;;;;;;;3.15;1.48;;;15.80;76.30;15.60;99404.00;;;;418130;23;88757;-84
2021/05/24 00:03:53;;;;;;;3.58;1.73;;;15.80;76.50;15.60;99400.00;;;;416076;23;84268;-85
2021/05/24 00:04:05;;;;;;;3.67;1.60;;;15.70;76.60;15.60;99397.00;;;;412054;23;93076;-85
2021/05/24 00:04:17;;;;;;;3.42;1.40;;;15.80;76.70;15.60;99402.00;;;;416281;23;82398;-85
2021/05/24 00:04:29;;;;;;;3.17;1.20;;;15.70;76.70;15.60;99400.00;;;;415739;23;89915;-85
2021/05/24 00:04:41;;;;;;;2.75;1.13;;;15.70;76.40;15.60;99396.00;;;;416196;23;83381;-84
2021/05/24 00:04:52;;;;;;;4.13;1.38;;;15.70;77.10;15.70;99396.00;;;;417409;23;88794;-84
2021/05/24 00:05:05;;;;;;;3.72;1.23;;;15.70;76.70;15.70;99394.00;;;;414050;23;84007;-84
2021/05/24 00:05:23;;;;;;;3.15;1.27;;;15.70;76.30;15.70;99397.00;;;;414077;23;89196;-84
2021/05/24 00:05:35;;;;;;;3.33;1.30;;;15.70;76.10;15.60;99397.00;;;;416290;23;83283;-84
2021/05/24 00:05:47;;;;;;;3.22;1.30;;;15.80;76.70;15.60;99401.00;;;;417858;23;88801;-85
2021/05/24 00:05:59;;;;;;;3.83;1.40;;;15.70;76.60;15.70;99399.00;;;;418493;23;84448;-85
2021/05/24 00:06:10;;;;;;;3.03;1.15;;;15.70;76.50;15.80;99397.00;;;;415822;23;89458;-85
2021/05/24 00:06:22;;;;;;;2.88;1.10;;;15.70;76.20;15.80;99392.00;;;;418449;23;83664;-85
2021/05/24 00:06:34;;;;;;;5.05;1.45;;;15.70;76.00;15.60;99399.00;;;;414061;23;90276;-85
2021/05/24 00:06:46;;;;;;;5.45;1.58;;;15.70;76.20;15.60;99395.00;;;;414585;23;83749;-85
2021/05/24 00:06:58;;;;;;;4.88;1.40;;;15.70;76.30;15.70;99393.00;;;;415690;23;89441;-84
2021/05/24 00:07:10;;;;;;;3.25;1.02;;;15.70;76.40;15.90;99397.00;;;;414306;23;83316;-85
2021/05/24 00:07:22;;;;;;;3.70;1.00;;;15.70;76.40;16.00;99401.00;;;;412238;23;89085;-84
2021/05/24 00:07:34;;;;;;;4.03;1.00;;;15.80;76.60;16.00;99393.00;;;;414283;23;83317;-85
2021/05/24 00:07:46;;;;;;;4.43;1.30;;;15.80;76.50;16.00;99393.00;;;;415408;23;89848;-84
2021/05/24 00:07:58;;;;;;;5.05;1.45;;;15.80;76.20;16.10;99395.00;;;;414250;23;83243;-84
2021/05/24 00:08:11;;;;;;;4.25;1.50;;;15.80;76.00;16.20;99396.00;;;;415720;23;90735;-85
2021/05/24 00:08:22;;;;;;;4.35;1.33;;;15.80;76.10;16.20;99400.00;;;;416242;23;83239;-84
2021/05/24 00:08:34;;;;;;;4.32;1.40;;;15.90;76.10;16.20;99398.00;;;;418120;23;90926;-85
2021/05/24 00:08:46;;;;;;;4.38;1.25;;;15.80;76.10;16.00;99394.00;;;;414318;23;82389;-85
2021/05/24 00:08:58;;;;;;;3.30;1.25;;;15.90;76.30;16.00;99397.00;;;;417617;23;91231;-85
2021/05/24 00:09:09;;;;;;;3.80;1.48;;;15.90;76.10;16.00;99402.00;;;;418305;23;83270;-85
2021/05/24 00:09:21;;;;;;;5.53;1.70;;;15.90;75.90;16.00;99388.00;;;;415827;23;89424;-85
2021/05/24 00:09:33;;;;;;;5.63;1.63;;;15.90;75.90;16.00;99397.00;;;;420259;23;83395;-84
2021/05/24 00:09:45;;;;;;;3.35;1.52;;;15.90;75.80;15.90;99401.00;;;;415677;23;88355;-84
2021/05/24 00:09:56;;;;;;;2.40;1.30;;;15.90;75.80;15.80;99397.00;;;;415765;23;85439;-85
2021/05/24 00:10:11;;;;;;;2.50;1.17;;;15.90;76.10;15.90;99397.00;;;;416198;23;89414;-84
2021/05/24 00:10:26;;;;;;;3.50;1.27;;;15.90;75.90;16.10;99393.00;;;;418180;23;83353;-84
2021/05/24 00:10:39;;;;;;;3.47;1.33;;;15.90;75.80;16.20;99389.00;;;;417491;23;91218;-85
2021/05/24 00:10:50;;;;;;;2.97;1.38;;;15.90;76.20;16.20;99392.00;;;;416538;23;83326;-84
2021/05/24 00:11:02;;;;;;;2.92;1.38;;;15.90;76.20;16.30;99399.00;;;;417952;23;91088;-85
2021/05/24 00:11:17;;;;;;;2.60;1.20;;;16.00;76.20;16.30;99390.00;;;;414298;23;83320;-84
2021/05/24 00:11:30;;;;;;;2.65;1.25;;;16.00;76.00;16.20;99386.00;;;;413899;23;89657;-84
2021/05/24 00:11:42;;;;;;;3.42;1.33;;;16.00;76.10;16.10;99399.00;;;;418488;23;83355;-85
2021/05/24 00:11:54;;;;;;;4.32;1.50;;;16.00;76.10;16.20;99385.00;;;;415878;23;89494;-85
2021/05/24 00:12:07;;;;;;;3.63;1.45;;;16.00;75.70;16.10;99391.00;;;;416247;23;83222;-85
2021/05/24 00:12:25;;;;;;;3.90;1.50;;;16.00;76.00;16.00;99388.00;;;;413552;23;91137;-84
2021/05/24 00:12:39;;;;;;;4.07;1.40;;;16.00;76.00;16.00;99399.00;;;;418138;23;83136;-84
2021/05/24 00:12:52;;;;;;;4.93;1.35;;;16.00;75.70;16.00;99389.00;;;;415521;23;89618;-84
2021/05/24 00:13:07;;;;;;;4.65;1.35;;;16.00;75.80;16.10;99392.00;;;;415973;23;83449;-84
2021/05/24 00:13:21;;;;;;;3.00;1.25;;;16.00;75.50;16.00;99392.00;;;;417711;23;89869;-84
2021/05/24 00:13:33;;;;;;;3.20;1.45;;;16.00;75.90;15.90;99388.00;;;;414465;23;83941;-84
2021/05/24 00:13:53;;;;;;;3.03;1.65;;;16.00;76.10;15.80;99391.00;;;;418096;23;89682;-84
2021/05/24 00:14:07;;;;;;;3.28;1.67;;;15.90;76.00;15.80;99385.00;;;;412278;23;83272;-84
2021/05/24 00:14:20;;;;;;;3.72;1.70;;;15.90;76.50;15.90;99388.00;;;;415798;23;89520;-84
2021/05/24 00:14:34;;;;;;;4.13;1.60;;;15.90;76.30;15.80;99394.00;;;;416532;23;83346;-84
2021/05/24 00:14:47;;;;;;;5.15;1.45;;;15.90;76.50;15.90;99392.00;;;;415765;23;89545;-85
2021/05/24 00:14:59;;;;;;;5.20;1.70;;;15.90;76.10;15.90;99390.00;;;;420258;23;83329;-85
2021/05/24 00:15:12;;;;;;;4.40;1.92;;;15.90;76.50;15.90;99394.00;;;;417803;23;90264;-85
2021/05/24 00:15:29;;;;;;;3.65;1.60;;;15.90;76.50;15.90;99389.00;;;;418173;23;83218;-85
2021/05/24 00:15:48;;;;;;;3.00;1.50;;;15.90;76.20;15.90;99395.00;;;;415736;23;90034;-84
2021/05/24 00:16:00;;;;;;;2.58;1.20;;;15.90;76.10;16.00;99385.00;;;;416235;23;83244;-84
2021/05/24 00:16:12;;;;;;;3.33;1.20;;;15.90;75.90;16.00;99384.00;;;;415836;23;89906;-85
2021/05/24 00:16:24;;;;;;;3.65;1.40;;;15.90;76.00;16.00;99389.00;;;;409894;23;83908;-84
2021/05/24 00:16:36;;;;;;;3.13;1.27;;;15.90;76.00;16.10;99393.00;;;;417868;23;88419;-85
2021/05/24 00:16:48;;;;;;;3.25;1.38;;;15.90;76.00;16.00;99388.00;;;;418247;23;83317;-84
2021/05/24 00:17:00;;;;;;;2.97;1.23;;;15.90;76.10;16.00;99389.00;;;;411678;23;89567;-84
2021/05/24 00:17:11;;;;;;;2.72;1.35;;;15.90;75.90;16.00;99393.00;;;;416237;23;83252;-85
2021/05/24 00:17:23;;;;;;;4.32;1.50;;;15.90;75.90;16.00;99387.00;;;;416100;23;88838;-85
2021/05/24 00:17:35;;;;;;;4.88;1.58;;;15.90;75.80;16.00;99393.00;;;;416284;23;83111;-85
2021/05/24 00:17:48;;;;;;;5.07;1.35;;;16.00;75.80;15.90;99385.00;;;;415615;23;91599;-84
2021/05/24 00:17:59;;;;;;;5.28;1.25;;;15.90;76.10;15.70;99386.00;;;;414290;23;82462;-84
2021/05/24 00:18:11;;;;;;;5.35;1.20;;;15.90;76.40;15.70;99387.00;;;;415779;23;89725;-85
2021/05/24 00:18:24;;;;;;;4.75;1.25;;;15.90;77.20;15.70;99385.00;;;;414080;23;83427;-85
2021/05/24 00:18:35;;;;;;;3.72;1.20;;;15.90;76.70;15.80;99391.00;;;;418190;23;89355;-84
2021/05/24 00:18:51;;;;;;;4.30;1.30;;;15.90;76.30;15.70;99388.00;;;;418642;23;83335;-85
2021/05/24 00:19:03;;;;;;;3.70;1.33;;;15.90;76.50;15.80;99388.00;;;;413767;23;89581;-84
2021/05/24 00:19:15;;;;;;;4.15;1.25;;;15.90;76.60;15.80;99388.00;;;;414469;23;83354;-84
2021/05/24 00:19:26;;;;;;;3.90;1.30;;;15.90;76.70;15.80;99391.00;;;;415613;23;90360;-85
2021/05/24 00:19:38;;;;;;;3.63;1.40;;;15.90;77.00;15.80;99383.00;;;;414220;23;83313;-85
2021/05/24 00:19:50;;;;;;;3.85;1.27;;;15.80;76.70;15.80;99388.00;;;;414042;23;89101;-84
2021/05/24 00:20:03;;;;;;;4.43;1.33;;;15.80;77.20;15.80;99387.00;;;;414067;23;83383;-85
2021/05/24 00:20:16;;;;;;;4.03;1.65;;;15.80;76.50;15.80;99384.00;;;;413728;23;88886;-85
2021/05/24 00:20:35;;;;;;;6.63;1.80;;;15.80;76.50;16.00;99390.00;;;;416233;23;83256;-85
2021/05/24 00:20:53;;;;;;;5.57;1.35;;;15.80;76.30;15.90;99388.00;;;;417909;23;90495;-85
2021/05/24 00:21:05;;;;;;;4.25;1.40;;;15.90;76.80;15.90;99380.00;;;;420263;23;82457;-85
2021/05/24 00:21:18;;;;;;;3.58;1.60;;;15.90;76.60;15.90;99376.00;;;;415748;23;89648;-85
2021/05/24 00:21:30;;;;;;;3.75;1.60;;;15.90;76.50;15.90;99378.00;;;;418613;23;83366;-85
2021/05/24 00:21:42;;;;;;;3.95;1.50;;;15.90;76.30;15.80;99372.00;;;;415736;23;89320;-84
2021/05/24 00:21:55;;;;;;;4.00;1.40;;;15.90;76.50;15.70;99377.00;;;;418442;23;84601;-85
2021/05/24 00:22:07;;;;;;;3.30;1.17;;;15.90;76.70;15.90;99375.00;;;;415827;23;89388;-85
2021/05/24 00:22:19;;;;;;;4.05;1.23;;;15.80;76.40;15.90;99374.00;;;;416204;23;83227;-85
2021/05/24 00:22:30;;;;;;;4.65;1.48;;;15.80;76.20;15.80;99369.00;;;;417897;23;91406;-85
2021/05/24 00:22:42;;;;;;;4.47;1.50;;;15.80;76.80;15.80;99373.00;;;;415823;23;84045;-85
2021/05/24 00:22:56;;;;;;;3.33;1.35;;;15.80;76.50;15.60;99372.00;;;;417743;23;89398;-85
2021/05/24 00:23:08;;;;;;;2.90;1.33;;;15.80;76.70;15.60;99372.00;;;;416364;23;84975;-85
2021/05/24 00:23:20;;;;;;;3.17;1.45;;;15.80;76.80;15.70;99370.00;;;;415864;23;89520;-85
2021/05/24 00:23:32;;;;;;;3.33;1.40;;;15.80;76.50;15.70;99373.00;;;;416699;23;83334;-85
2021/05/24 00:23:44;;;;;;;2.95;1.30;;;15.80;77.00;15.80;99369.00;;;;417621;23;90113;-85
2021/05/24 00:23:56;;;;;;;2.53;1.10;;;15.80;76.40;15.70;99375.00;;;;416353;23;83327;-85
2021/05/24 00:24:08;;;;;;;3.33;1.23;;;15.80;76.30;15.60;99374.00;;;;416033;23;90664;-84
2021/05/24 00:24:20;;;;;;;3.47;1.27;;;15.80;76.90;15.60;99372.00;;;;416406;23;83986;-85
2021/05/24 00:24:31;;;;;;;3.42;1.58;;;15.80;77.00;15.70;99381.00;;;;418121;23;90298;-85
2021/05/24 00:24:43;;;;;;;3.70;1.73;;;15.80;76.80;15.60;99380.00;;;;416236;23;83255;-85
2021/05/24 00:24:55;;;;;;;5.53;2.08;;;15.80;77.10;15.60;99376.00;;;;415791;23;90010;-85
2021/05/24 00:25:08;;;;;;;5.10;1.63;;;15.80;77.10;15.70;99377.00;;;;418215;23;83597;-85
2021/05/24 00:25:20;;;;;;;4.63;1.13;;;15.80;76.90;15.60;99380.00;;;;417745;23;88860;-84
2021/05/24 00:25:32;;;;;;;3.88;1.08;;;15.70;77.10;15.40;99382.00;;;;416422;23;83629;-85
2021/05/24 00:25:44;;;;;;;2.50;1.15;;;15.70;77.10;15.40;99382.00;;;;415661;23;90859;-85
2021/05/24 00:25:56;;;;;;;2.38;1.08;;;15.70;77.30;15.60;99376.00;;;;412710;23;83318;-84
2021/05/24 00:26:08;;;;;;;2.60;1.05;;;15.70;76.90;15.60;99381.00;;;;415763;23;89897;-85
2021/05/24 00:26:20;;;;;;;3.88;1.38;;;15.70;76.70;15.50;99379.00;;;;416192;23;83055;-85
2021/05/24 00:26:32;;;;;;;4.95;1.50;;;15.70;77.00;15.40;99383.00;;;;415743;23;89448;-85
2021/05/24 00:26:43;;;;;;;4.68;1.38;;;15.70;77.20;15.40;99379.00;;;;416688;23;82300;-85
2021/05/24 00:26:55;;;;;;;3.83;1.33;;;15.70;77.30;15.50;99383.00;;;;417609;23;91240;-85
2021/05/24 00:27:07;;;;;;;3.50;1.08;;;15.70;77.40;15.50;99378.00;;;;416436;23;85461;-85
2021/05/24 00:27:19;;;;;;;3.80;0.85;;;15.70;77.30;15.60;99386.00;;;;416179;23;88346;-85
2021/05/24 00:27:30;;;;;;;3.72;1.20;;;15.70;77.00;15.50;99381.00;;;;416338;23;84374;-85
2021/05/24 00:27:43;;;;;;;3.53;1.60;;;15.70;77.20;15.40;99382.00;;;;415693;23;90600;-85
2021/05/24 00:27:56;;;;;;;4.63;1.58;;;15.70;77.30;15.60;99387.00;;;;414222;23;83358;-85
2021/05/24 00:28:12;;;;;;;4.10;1.35;;;15.70;77.10;15.80;99380.00;;;;417834;23;89802;-85
2021/05/24 00:28:24;;;;;;;3.05;1.10;;;15.70;76.90;15.70;99384.00;;;;416149;23;83394;-85
2021/05/24 00:28:36;;;;;;;3.00;1.08;;;15.70;77.10;15.70;99378.00;;;;411845;23;89411;-84
2021/05/24 00:28:47;;;;;;;4.00;1.30;;;15.70;77.40;15.50;99379.00;;;;418147;23;83229;-85
2021/05/24 00:28:59;;;;;;;3.47;1.33;;;15.70;77.30;15.70;99379.00;;;;417810;23;88809;-85
2021/05/24 00:29:15;;;;;;;3.33;1.50;;;15.70;77.00;15.80;99378.00;;;;420267;23;83304;-85
2021/05/24 00:29:27;;;;;;;3.13;1.30;;;15.70;76.90;15.80;99376.00;;;;417822;23;89511;-85
2021/05/24 00:29:39;;;;;;;3.33;1.20;;;15.70;76.90;15.70;99381.00;;;;416511;23;83203;-85
2021/05/24 00:29:51;;;;;;;3.97;1.27;;;15.70;77.20;15.60;99374.00;;;;415922;23;92264;-85
2021/05/24 00:30:04;;;;;;;4.47;1.30;;;15.70;77.40;15.60;99376.00;;;;416214;23;83379;-85
2021/05/24 00:30:17;;;;;;;4.22;1.40;;;15.70;77.40;15.50;99382.00;;;;413963;23;91450;-85
2021/05/24 00:30:32;;;;;;;2.67;1.42;;;15.60;77.30;15.50;99374.00;;;;418484;23;83296;-85
2021/05/24 00:30:45;;;;;;;2.45;1.40;;;15.70;77.40;15.50;99374.00;;;;417741;23;89776;-84
2021/05/24 00:30:57;;;;;;;3.65;1.70;;;15.70;77.30;15.50;99372.00;;;;418087;23;83637;-84
2021/05/24 00:31:09;;;;;;;4.45;1.90;;;15.70;77.70;15.50;99381.00;;;;415991;23;90992;-85
2021/05/24 00:31:21;;;;;;;4.03;1.73;;;15.60;77.60;15.50;99376.00;;;;416255;23;83283;-85
2021/05/24 00:31:32;;;;;;;2.70;1.30;;;15.60;77.60;15.50;99371.00;;;;417803;23;89777;-85
2021/05/24 00:31:44;;;;;;;3.28;1.30;;;15.60;77.60;15.60;99380.00;;;;416101;23;83162;-84
2021/05/24 00:31:56;;;;;;;3.85;1.25;;;15.60;77.80;15.70;99378.00;;;;414109;23;91012;-85
2021/05/24 00:32:08;;;;;;;3.22;1.25;;;15.60;77.20;15.70;99375.00;;;;412639;23;83251;-84
2021/05/24 00:32:19;;;;;;;2.20;1.20;;;15.70;77.10;15.80;99377.00;;;;417641;23;88586;-85
2021/05/24 00:32:31;;;;;;;2.33;1.33;;;15.70;77.10;15.80;99380.00;;;;418704;23;83256;-85
2021/05/24 00:32:43;;;;;;;2.63;1.30;;;15.70;77.10;15.70;99370.00;;;;413788;23;89422;-85
2021/05/24 00:32:55;;;;;;;2.95;1.38;;;15.70;77.30;15.60;99378.00;;;;416653;23;83587;-85
2021/05/24 00:33:07;;;;;;;2.92;1.30;;;15.70;77.60;15.50;99376.00;;;;412214;23;89357;-85
2021/05/24 00:33:18;;;;;;;2.53;1.20;;;15.70;77.90;15.50;99376.00;;;;412091;23;83924;-85
2021/05/24 00:33:30;;;;;;;2.40;1.15;;;15.60;78.00;15.60;99384.00;;;;414049;23;92578;-85
2021/05/24 00:33:42;;;;;;;2.35;1.35;;;15.60;77.50;15.70;99381.00;;;;414085;23;84004;-84
2021/05/24 00:33:54;;;;;;;2.40;1.26;;;15.60;77.40;15.50;99372.00;;;;413564;23;90633;-85
2021/05/24 00:34:06;;;;;;;2.85;1.25;;;15.70;77.80;15.60;99377.00;;;;416635;23;83197;-85
2021/05/24 00:34:17;;;;;;;3.60;1.20;;;15.60;77.70;15.70;99381.00;;;;416021;23;88871;-84
2021/05/24 00:34:29;;;;;;;3.35;1.10;;;15.60;77.40;15.70;99384.00;;;;413865;23;84047;-84
2021/05/24 00:34:41;;;;;;;4.53;1.40;;;15.60;77.30;15.70;99386.00;;;;415898;23;89279;-85
2021/05/24 00:34:53;;;;;;;4.90;1.58;;;15.60;77.50;15.70;99380.00;;;;414085;23;83351;-85
2021/05/24 00:35:05;;;;;;;4.70;1.40;;;15.60;77.50;15.90;99384.00;;;;415815;23;88171;-85
2021/05/24 00:35:17;;;;;;;3.22;1.10;;;15.60;77.40;15.90;99380.00;;;;414207;23;83301;-85
2021/05/24 00:35:30;;;;;;;3.08;1.20;;;15.70;77.60;15.80;99381.00;;;;417732;23;91922;-84
2021/05/24 00:35:42;;;;;;;2.67;1.17;;;15.70;77.80;15.80;99382.00;;;;416247;23;82460;-85
2021/05/24 00:35:53;;;;;;;2.30;1.02;;;15.70;77.50;15.70;99382.00;;;;415682;23;90786;-85
2021/05/24 00:36:05;;;;;;;2.70;0.95;;;15.70;77.70;15.70;99373.00;;;;416710;23;83194;-84
2021/05/24 00:36:17;;;;;;;3.33;1.10;;;15.70;77.90;15.80;99375.00;;;;415847;23;89657;-85
2021/05/24 00:36:29;;;;;;;3.95;1.80;;;15.70;77.60;15.90;99369.00;;;;413961;23;83479;-84
2021/05/24 00:36:41;;;;;;;4.47;2.03;;;15.70;77.60;15.80;99368.00;;;;415757;23;89897;-85
2021/05/24 00:36:55;;;;;;;4.13;1.85;;;15.70;78.10;15.80;99379.00;;;;414572;23;83349;-85
2021/05/24 00:37:06;;;;;;;3.40;1.17;;;15.70;77.90;15.70;99376.00;;;;416219;23;88924;-85
2021/05/24 00:37:21;;;;;;;3.63;1.42;;;15.70;77.70;15.80;99381.00;;;;416076;23;83957;-84
2021/05/24 00:37:33;;;;;;;3.08;1.42;;;15.70;77.60;15.70;99369.00;;;;411734;23;89734;-85
2021/05/24 00:37:46;;;;;;;2.63;1.33;;;15.70;78.00;15.60;99371.00;;;;414319;23;82610;-84
2021/05/24 00:37:59;;;;;;;2.85;1.40;;;15.70;78.20;15.50;99379.00;;;;413657;23;91091;-85
2021/05/24 00:38:11;;;;;;;3.75;1.45;;;15.70;78.00;15.50;99374.00;;;;412238;23;83408;-84
2021/05/24 00:38:22;;;;;;;3.28;1.25;;;15.60;78.10;15.40;99373.00;;;;416097;23;90234;-84
2021/05/24 00:38:34;;;;;;;2.90;1.10;;;15.60;78.30;15.40;99372.00;;;;414285;23;83378;-85
2021/05/24 00:38:46;;;;;;;2.47;1.10;;;15.60;78.40;15.50;99371.00;;;;416123;23;88644;-85
2021/05/24 00:38:58;;;;;;;2.53;1.00;;;15.60;78.50;15.50;99386.00;;;;414197;23;83282;-85
2021/05/24 00:39:09;;;;;;;2.80;0.98;;;15.60;78.50;15.60;99378.00;;;;415936;23;91044;-84
2021/05/24 00:39:22;;;;;;;3.33;0.98;;;15.60;78.20;15.60;99375.00;;;;416250;23;82845;-85
2021/05/24 00:39:35;;;;;;;3.88;1.13;;;15.70;78.40;15.60;99373.00;;;;413882;23;89471;-85
2021/05/24 00:39:46;;;;;;;3.25;1.20;;;15.60;78.40;15.80;99375.00;;;;416305;23;82388;-85
2021/05/24 00:39:58;;;;;;;2.47;1.20;;;15.60;77.90;15.80;99363.00;;;;417716;23;90308;-86
2021/05/24 00:40:11;;;;;;;2.65;1.38;;;15.70;77.90;15.80;99367.00;;;;418198;23;83249;-85
2021/05/24 00:40:22;;;;;;;2.88;1.40;;;15.70;78.10;15.80;99374.00;;;;415740;23;89543;-85
2021/05/24 00:40:35;;;;;;;2.85;1.10;;;15.70;78.10;15.80;99367.00;;;;414274;23;83624;-85
2021/05/24 00:40:47;;;;;;;3.42;1.50;;;15.70;78.20;15.90;99374.00;;;;413706;23;91595;-85
2021/05/24 00:40:59;;;;;;;3.40;1.48;;;15.70;77.90;16.00;99376.00;;;;412171;23;83396;-85
2021/05/24 00:41:11;;;;;;;3.15;1.45;;;15.70;78.10;16.00;99368.00;;;;409992;23;88408;-86
2021/05/24 00:41:23;;;;;;;3.30;1.45;;;15.70;78.20;16.10;99370.00;;;;410243;23;83289;-85
2021/05/24 00:41:37;;;;;;;3.25;1.70;;;15.70;78.20;16.10;99373.00;;;;414036;23;91264;-85
2021/05/24 00:41:49;;;;;;;3.38;1.70;;;15.70;78.10;16.10;99370.00;;;;414564;23;83363;-85
2021/05/24 00:42:01;;;;;;;4.10;1.40;;;15.70;78.00;16.10;99373.00;;;;415685;23;90757;-85
2021/05/24 00:42:13;;;;;;;3.47;1.30;;;15.80;78.00;16.10;99371.00;;;;414331;23;83258;-85
2021/05/24 00:42:25;;;;;;;3.78;1.25;;;15.80;77.50;16.00;99373.00;;;;413568;23;89670;-85
2021/05/24 00:42:37;;;;;;;2.97;1.17;;;15.80;77.70;15.80;99370.00;;;;412254;23;83316;-85
2021/05/24 00:42:49;;;;;;;3.85;1.30;;;15.80;77.70;15.70;99369.00;;;;411874;23;88516;-85
2021/05/24 00:43:02;;;;;;;3.55;1.30;;;15.80;78.10;15.70;99371.00;;;;412257;23;83319;-85
2021/05/24 00:43:14;;;;;;;2.90;1.52;;;15.80;78.10;15.80;99372.00;;;;415720;23;90142;-85
2021/05/24 00:43:26;;;;;;;2.60;1.30;;;15.80;77.90;15.80;99359.00;;;;412278;23;83239;-85
2021/05/24 00:43:37;;;;;;;2.28;1.02;;;15.70;77.70;15.80;99358.00;;;;413804;23;89459;-85
2021/05/24 00:43:50;;;;;;;2.40;0.88;;;15.80;77.60;15.90;99366.00;;;;414228;23;83302;-85
2021/05/24 00:44:02;;;;;;;2.65;1.00;;;15.80;77.70;15.80;99371.00;;;;415642;23;90755;-85
2021/05/24 00:44:15;;;;;;;4.80;1.80;;;15.70;77.80;15.90;99360.00;;;;411894;23;83275;-85
2021/05/24 00:44:28;;;;;;;4.78;1.85;;;15.70;77.80;15.90;99371.00;;;;411716;23;91396;-85
2021/05/24 00:44:39;;;;;;;4.28;1.52;;;15.80;77.80;15.80;99369.00;;;;416238;23;83291;-85
2021/05/24 00:44:51;;;;;;;3.95;1.20;;;15.70;78.10;15.80;99367.00;;;;415752;23;88815;-85
2021/05/24 00:45:06;;;;;;;4.63;1.48;;;15.70;77.90;15.90;99369.00;;;;414467;23;83213;-85
2021/05/24 00:45:18;;;;;;;4.03;1.48;;;15.70;77.60;16.00;99365.00;;;;407947;23;89541;-85
2021/05/24 00:45:30;;;;;;;3.20;1.23;;;15.70;77.60;15.90;99359.00;;;;414172;23;83328;-85
2021/05/24 00:45:42;;;;;;;2.90;1.08;;;15.80;77.50;15.70;99368.00;;;;413740;23;89363;-85
2021/05/24 00:45:54;;;;;;;2.53;1.02;;;15.70;77.60;15.70;99369.00;;;;412253;23;83308;-84
2021/05/24 00:46:06;;;;;;;3.50;1.23;;;15.80;77.90;15.60;99367.00;;;;414059;23;90688;-85
2021/05/24 00:46:17;;;;;;;3.65;1.33;;;15.70;78.00;15.60;99365.00;;;;412624;23;83228;-85
2021/05/24 00:46:30;;;;;;;2.80;1.20;;;15.70;78.10;15.60;99367.00;;;;414099;23;88670;-85
2021/05/24 00:46:43;;;;;;;2.40;1.17;;;15.70;78.20;15.60;99362.00;;;;414621;23;83307;-85
2021/05/24 00:46:55;;;;;;;2.47;1.17;;;15.70;78.20;15.60;99358.00;;;;415524;23;89786;-85
2021/05/24 00:47:07;;;;;;;3.53;1.27;;;15.70;78.20;15.80;99360.00;;;;418355;23;83254;-85
2021/05/24 00:47:19;;;;;;;4.35;1.48;;;15.70;77.80;15.70;99366.00;;;;413754;23;87736;-85
2021/05/24 00:47:30;;;;;;;4.57;1.42;;;15.70;78.00;15.60;99360.00;;;;414196;23;83403;-85
2021/05/24 00:47:43;;;;;;;3.40;1.23;;;15.70;78.20;15.50;99359.00;;;;411758;23;89753;-84
2021/05/24 00:47:55;;;;;;;3.47;1.38;;;15.70;78.50;15.60;99361.00;;;;412346;23;82412;-85
2021/05/24 00:48:09;;;;;;;3.70;1.60;;;15.60;78.40;15.60;99365.00;;;;413706;23;90640;-85
2021/05/24 00:48:21;;;;;;;4.13;1.77;;;15.60;78.60;15.60;99361.00;;;;414446;23;83940;-85
2021/05/24 00:48:33;;;;;;;7.00;1.60;;;15.60;78.20;15.60;99360.00;;;;416093;23;89251;-85
2021/05/24 00:48:45;;;;;;;7.28;1.52;;;15.60;78.00;15.70;99360.00;;;;414257;23;82365;-85
2021/05/24 00:48:57;;;;;;;5.95;1.40;;;15.60;78.00;15.80;99357.00;;;;411855;23;89825;-85
2021/05/24 00:49:08;;;;;;;4.40;1.42;;;15.60;77.80;15.80;99364.00;;;;414424;23;83459;-86
2021/05/24 00:49:27;;;;;;;4.40;1.50;;;15.60;77.80;15.60;99361.00;;;;416053;23;91099;-85
2021/05/24 00:49:39;;;;;;;4.90;1.38;;;15.60;78.10;15.50;99361.00;;;;414144;23;83414;-85
2021/05/24 00:49:51;;;;;;;5.50;1.23;;;15.60;78.40;15.50;99360.00;;;;413839;23;89525;-85
2021/05/24 00:50:04;;;;;;;5.28;1.38;;;15.60;78.40;15.40;99371.00;;;;416226;23;83368;-85
2021/05/24 00:50:16;;;;;;;3.58;1.40;;;15.60;78.50;15.40;99368.00;;;;413651;23;91966;-85
2021/05/24 00:50:28;;;;;;;3.20;1.30;;;15.60;78.70;15.60;99366.00;;;;414081;23;83526;-84
2021/05/24 00:50:40;;;;;;;2.42;1.15;;;15.60;78.60;15.50;99363.00;;;;411663;23;89339;-84
2021/05/24 00:50:52;;;;;;;2.03;1.10;;;15.60;78.50;15.60;99363.00;;;;412494;23;83245;-85
2021/05/24 00:51:04;;;;;;;2.50;1.15;;;15.60;78.40;15.60;99367.00;;;;411837;23;89840;-85
2021/05/24 00:51:16;;;;;;;2.80;1.35;;;15.50;78.60;15.50;99358.00;;;;412619;23;83356;-85
2021/05/24 00:51:29;;;;;;;2.38;1.42;;;15.50;79.10;15.50;99368.00;;;;412070;23;89741;-85
2021/05/24 00:51:41;;;;;;;3.05;1.40;;;15.50;78.30;15.40;99356.00;;;;411987;23;83855;-85
2021/05/24 00:51:54;;;;;;;3.50;1.23;;;15.50;78.50;15.50;99367.00;;;;411834;23;89186;-85
2021/05/24 00:52:06;;;;;;;3.65;1.20;;;15.50;79.10;15.50;99359.00;;;;412227;23;83329;-84
2021/05/24 00:52:18;;;;;;;3.90;1.48;;;15.50;78.50;15.60;99362.00;;;;412025;23;91025;-85
2021/05/24 00:52:30;;;;;;;3.95;1.55;;;15.50;78.30;15.60;99356.00;;;;416642;23;83283;-85
2021/05/24 00:52:41;;;;;;;3.33;1.38;;;15.50;78.40;15.60;99365.00;;;;414229;23;88431;-85
2021/05/24 00:52:53;;;;;;;3.05;1.20;;;15.50;78.40;15.60;99360.00;;;;414474;23;84265;-85
2021/05/24 00:53:05;;;;;;;2.83;1.10;;;15.50;78.40;15.50;99362.00;;;;415519;23;89887;-85
2021/05/24 00:53:17;;;;;;;2.38;0.93;;;15.50;78.60;15.50;99352.00;;;;412453;23;84012;-85
2021/05/24 00:53:30;;;;;;;2.45;1.02;;;15.50;78.50;15.60;99359.00;;;;411945;23;89754;-84
2021/05/24 00:53:43;;;;;;;2.88;1.10;;;15.50;78.20;15.70;99353.00;;;;412225;23;83348;-85
2021/05/24 00:53:58;;;;;;;2.60;1.02;;;15.50;78.20;15.60;99360.00;;;;415804;23;89145;-85
2021/05/24 00:54:10;;;;;;;2.40;1.00;;;15.50;79.00;15.60;99361.00;;;;416146;23;83470;-85
2021/05/24 00:54:22;;;;;;;3.13;1.15;;;15.50;78.30;15.70;99357.00;;;;411731;23;89564;-85
2021/05/24 00:54:34;;;;;;;3.47;1.38;;;15.50;78.80;15.40;99355.00;;;;414172;23;83324;-85
2021/05/24 00:54:46;;;;;;;3.13;1.45;;;15.50;78.50;15.40;99367.00;;;;415815;23;89749;-85
2021/05/24 00:54:58;;;;;;;3.05;1.17;;;15.50;78.70;15.40;99361.00;;;;414225;23;82609;-85
2021/05/24 00:55:10;;;;;;;2.50;0.90;;;15.50;78.80;15.50;99353.00;;;;413776;23;89790;-85
2021/05/24 00:55:22;;;;;;;2.65;1.00;;;15.50;78.60;15.50;99362.00;;;;414185;23;83322;-85
2021/05/24 00:55:34;;;;;;;2.63;1.27;;;15.50;78.50;15.40;99359.00;;;;415694;23;89999;-85
2021/05/24 00:55:46;;;;;;;2.55;1.15;;;15.50;78.80;15.30;99360.00;;;;415783;23;83655;-85
2021/05/24 00:55:57;;;;;;;2.30;1.20;;;15.50;79.70;15.30;99354.00;;;;415860;23;89387;-85